Time;durP1;ratioP1;P1;durP2;ratioP2;P2;SDS_P1;SDS_P2;PMS_P1;PMS_P2;Temp;Humidity;BMP_temperature;BMP_pressure;BME280_temperature;BME280_humidity;BME280_pressure;Samples;Min_cycle;Max_cycle;Signal;HPM_P1;HPM_P2
2023/08/08 00:01:45;;;;;;;1.60;1.10;;;11.60;99.90;;;;;;5033126;28;20032;-79
2023/08/08 00:04:11;;;;;;;1.60;1.13;;;11.60;99.90;;;;;;5033612;28;20029;-80
2023/08/08 00:06:37;;;;;;;2.95;1.10;;;11.70;99.90;;;;;;5031004;28;20033;-80
2023/08/08 00:09:03;;;;;;;2.55;1.00;;;11.70;99.90;;;;;;5033048;28;20065;-80
2023/08/08 00:11:29;;;;;;;2.05;1.30;;;11.70;99.90;;;;;;5032400;28;20550;-80
2023/08/08 00:13:56;;;;;;;2.35;1.08;;;11.70;99.90;;;;;;5033362;28;20480;-80
2023/08/08 00:16:21;;;;;;;1.65;1.10;;;11.80;99.90;;;;;;5032386;28;20025;-80
2023/08/08 00:18:49;;;;;;;1.77;1.15;;;11.80;99.90;;;;;;5032961;28;20044;-79
2023/08/08 00:21:14;;;;;;;2.75;1.10;;;11.80;99.90;;;;;;5032638;28;20123;-80
2023/08/08 00:23:40;;;;;;;2.50;1.38;;;11.80;99.90;;;;;;5033022;28;20629;-79
2023/08/08 00:26:06;;;;;;;2.45;1.20;;;11.80;99.90;;;;;;5032681;28;20021;-80
2023/08/08 00:28:31;;;;;;;2.40;1.00;;;11.90;99.90;;;;;;5032034;28;20035;-79
2023/08/08 00:30:57;;;;;;;2.72;1.23;;;11.90;99.90;;;;;;5032357;28;20049;-81
2023/08/08 00:33:22;;;;;;;2.70;1.00;;;11.90;99.90;;;;;;5032252;28;20051;-80
2023/08/08 00:35:48;;;;;;;3.45;1.20;;;11.90;99.90;;;;;;5034481;28;20033;-79
2023/08/08 00:38:14;;;;;;;2.17;1.20;;;11.90;99.90;;;;;;5035343;28;20029;-80
2023/08/08 00:40:39;;;;;;;2.58;1.25;;;11.90;99.90;;;;;;5036377;28;20049;-80
2023/08/08 00:43:05;;;;;;;1.63;0.90;;;11.90;99.90;;;;;;5036157;28;20095;-80
2023/08/08 00:45:31;;;;;;;1.48;1.17;;;11.90;99.90;;;;;;5035763;28;20262;-79
2023/08/08 00:47:56;;;;;;;1.63;1.08;;;11.90;99.90;;;;;;5035679;28;20025;-80
2023/08/08 00:50:22;;;;;;;1.45;1.00;;;12.00;99.90;;;;;;5035764;28;20198;-79
2023/08/08 00:52:49;;;;;;;2.15;1.20;;;11.90;99.90;;;;;;5035428;28;20480;-79
2023/08/08 00:55:15;;;;;;;2.78;1.00;;;11.90;99.90;;;;;;5035673;28;20029;-79
2023/08/08 00:57:40;;;;;;;2.75;1.20;;;11.90;99.90;;;;;;5035262;28;20220;-80
2023/08/08 01:00:09;;;;;;;3.22;1.40;;;11.90;99.90;;;;;;5035016;28;20476;-73
2023/08/08 01:02:35;;;;;;;2.00;1.23;;;11.90;99.90;;;;;;5033959;28;20446;-79
2023/08/08 01:05:02;;;;;;;2.83;1.40;;;11.90;99.90;;;;;;5033317;28;20026;-79
2023/08/08 01:07:36;;;;;;;4.10;1.42;;;11.90;99.90;;;;;;5031676;28;20522;-79
2023/08/08 01:10:12;;;;;;;2.90;1.30;;;11.80;99.90;;;;;;5033835;28;20048;-79
2023/08/08 01:12:45;;;;;;;7.18;1.35;;;11.80;99.90;;;;;;5033181;28;20029;-79
2023/08/08 01:15:12;;;;;;;2.50;1.17;;;11.80;99.90;;;;;;5033312;28;20043;-79
2023/08/08 01:17:39;;;;;;;5.88;1.27;;;11.80;99.90;;;;;;5032346;28;20030;-79
2023/08/08 01:20:07;;;;;;;2.60;1.20;;;11.70;99.90;;;;;;5032946;28;20116;-79
2023/08/08 01:22:45;;;;;;;3.58;1.33;;;11.70;99.90;;;;;;5034130;28;20033;-79
2023/08/08 01:25:11;;;;;;;1.83;1.20;;;11.70;99.90;;;;;;5036171;28;20040;-79
2023/08/08 01:27:37;;;;;;;2.58;1.10;;;11.70;99.90;;;;;;5035730;28;20060;-79
2023/08/08 01:30:03;;;;;;;2.10;1.17;;;11.60;99.90;;;;;;5034719;28;20092;-79
2023/08/08 01:32:29;;;;;;;1.58;1.17;;;11.60;99.90;;;;;;5033730;28;20036;-78
2023/08/08 01:34:55;;;;;;;3.38;1.25;;;11.60;99.90;;;;;;5032796;28;21302;-78
2023/08/08 01:37:30;;;;;;;4.25;1.20;;;11.60;99.90;;;;;;5032665;28;20033;-78
2023/08/08 01:39:58;;;;;;;;;;;11.50;99.90;;;;;;5033530;28;20036;-78
2023/08/08 01:42:25;;;;;;;2.60;1.17;;;11.50;99.90;;;;;;5032617;28;20413;-79
2023/08/08 01:44:52;;;;;;;3.45;1.13;;;11.40;99.90;;;;;;5032454;28;20027;-78
2023/08/08 01:47:18;;;;;;;1.80;1.17;;;11.40;99.90;;;;;;5032037;28;20036;-78
2023/08/08 01:49:43;;;;;;;2.75;1.35;;;11.40;99.90;;;;;;5031106;28;20045;-79
2023/08/08 01:52:09;;;;;;;2.10;1.40;;;11.30;99.90;;;;;;5032502;28;20063;-79
2023/08/08 01:54:34;;;;;;;4.80;1.33;;;11.30;99.90;;;;;;5033050;28;20038;-79
2023/08/08 01:57:00;;;;;;;2.65;1.23;;;11.30;99.90;;;;;;5031626;28;20112;-79
2023/08/08 01:59:25;;;;;;;3.70;1.58;;;11.20;99.90;;;;;;5032491;28;20017;-78
2023/08/08 02:01:51;;;;;;;2.33;1.27;;;11.20;99.90;;;;;;5032513;28;20168;-78
2023/08/08 02:04:16;;;;;;;1.88;1.20;;;11.20;99.90;;;;;;5032028;28;20025;-79
2023/08/08 02:06:42;;;;;;;2.70;1.23;;;11.10;99.90;;;;;;5030870;28;20071;-79
2023/08/08 02:09:08;;;;;;;2.10;1.13;;;11.10;99.90;;;;;;5031627;28;20033;-79
2023/08/08 02:11:33;;;;;;;2.38;1.27;;;11.10;99.90;;;;;;5032713;28;20032;-79
2023/08/08 02:13:58;;;;;;;1.77;1.23;;;11.00;99.90;;;;;;5032241;28;20029;-79
2023/08/08 02:16:24;;;;;;;2.08;1.27;;;11.00;99.90;;;;;;5031950;28;20028;-79
2023/08/08 02:18:50;;;;;;;3.20;1.30;;;10.90;99.90;;;;;;5030902;28;20035;-79
2023/08/08 02:21:15;;;;;;;3.40;1.20;;;10.90;99.90;;;;;;5030921;28;20036;-79
2023/08/08 02:23:41;;;;;;;2.45;1.40;;;10.90;99.90;;;;;;5031218;28;20400;-78
2023/08/08 02:26:06;;;;;;;2.37;1.30;;;10.80;99.90;;;;;;5031076;28;20446;-78
2023/08/08 02:28:32;;;;;;;3.55;1.80;;;10.80;99.90;;;;;;5030359;28;21228;-79
2023/08/08 02:30:57;;;;;;;4.77;1.30;;;10.80;99.90;;;;;;5031800;28;20154;-79
2023/08/08 02:33:23;;;;;;;1.75;1.25;;;10.80;99.90;;;;;;5031910;28;20095;-78
2023/08/08 02:35:48;;;;;;;2.97;1.33;;;10.80;99.90;;;;;;5031411;28;20139;-79
2023/08/08 02:38:14;;;;;;;2.33;1.13;;;10.80;99.90;;;;;;5031706;28;20048;-78
2023/08/08 02:40:40;;;;;;;2.60;1.40;;;10.80;99.90;;;;;;5031779;28;20385;-78
2023/08/08 02:43:05;;;;;;;2.35;1.33;;;10.80;99.90;;;;;;5030823;28;20507;-78
2023/08/08 02:45:31;;;;;;;2.47;1.27;;;10.80;99.90;;;;;;5031501;28;20057;-79
2023/08/08 02:47:56;;;;;;;2.00;1.43;;;10.70;99.90;;;;;;5030938;28;20030;-78
2023/08/08 02:50:22;;;;;;;2.50;1.35;;;10.70;99.90;;;;;;5030141;28;20124;-79
2023/08/08 02:52:47;;;;;;;1.93;1.20;;;10.70;99.90;;;;;;5031273;28;20045;-79
2023/08/08 02:55:13;;;;;;;1.90;1.30;;;10.60;99.90;;;;;;5031553;28;20021;-78
2023/08/08 02:57:39;;;;;;;1.83;1.30;;;10.60;99.90;;;;;;5030421;28;20029;-78
2023/08/08 03:00:08;;;;;;;2.30;1.40;;;10.60;99.90;;;;;;5030982;28;20021;-78
2023/08/08 03:02:33;;;;;;;3.27;1.30;;;10.60;99.90;;;;;;5030268;28;20674;-79
2023/08/08 03:04:59;;;;;;;3.70;1.30;;;10.60;99.90;;;;;;5031419;28;20077;-79
2023/08/08 03:07:25;;;;;;;2.17;1.23;;;10.60;99.90;;;;;;5029664;28;20368;-79
2023/08/08 03:09:50;;;;;;;2.83;1.38;;;10.60;99.90;;;;;;5030336;28;20090;-79
2023/08/08 03:12:16;;;;;;;1.90;1.30;;;10.70;99.90;;;;;;5030529;28;20017;-78
2023/08/08 03:14:41;;;;;;;2.95;1.25;;;10.70;99.90;;;;;;5031147;28;20017;-78
2023/08/08 03:17:07;;;;;;;1.73;1.20;;;10.70;99.90;;;;;;5030600;28;20669;-79
2023/08/08 03:19:32;;;;;;;2.70;1.43;;;10.80;99.90;;;;;;5030929;28;20026;-78
2023/08/08 03:21:58;;;;;;;2.53;1.27;;;10.70;99.90;;;;;;5030935;28;20542;-78
2023/08/08 03:24:23;;;;;;;3.00;1.47;;;10.80;99.90;;;;;;5031023;28;20573;-78
2023/08/08 03:26:49;;;;;;;2.08;1.25;;;10.90;99.90;;;;;;5030157;28;20879;-78
2023/08/08 03:29:14;;;;;;;2.65;1.30;;;10.90;99.90;;;;;;5030363;28;20039;-78
2023/08/08 03:31:40;;;;;;;1.93;1.23;;;10.90;99.90;;;;;;5030833;28;21070;-78
2023/08/08 03:34:06;;;;;;;4.13;1.33;;;10.90;99.90;;;;;;5030579;28;20029;-79
2023/08/08 03:36:31;;;;;;;2.17;1.20;;;11.00;99.90;;;;;;5030151;28;20087;-78
2023/08/08 03:38:57;;;;;;;2.87;1.50;;;11.00;99.90;;;;;;5030759;28;20131;-78
2023/08/08 03:41:22;;;;;;;2.95;1.48;;;11.00;99.90;;;;;;5030312;28;20025;-78
2023/08/08 03:43:48;;;;;;;2.83;1.50;;;11.10;99.90;;;;;;5030511;28;20032;-78
2023/08/08 03:46:13;;;;;;;1.50;1.08;;;11.10;99.90;;;;;;5030384;28;20727;-78
2023/08/08 03:48:39;;;;;;;3.10;1.30;;;11.10;99.90;;;;;;5029441;28;20037;-78
2023/08/08 03:51:05;;;;;;;2.33;1.40;;;11.10;99.90;;;;;;5030259;28;20053;-78
2023/08/08 03:53:30;;;;;;;2.20;1.40;;;11.20;99.90;;;;;;5029826;28;20367;-79
2023/08/08 03:55:56;;;;;;;2.30;1.38;;;11.20;99.90;;;;;;5030482;28;20021;-78
2023/08/08 03:58:21;;;;;;;2.78;1.20;;;11.20;99.90;;;;;;5030268;28;20477;-78
2023/08/08 04:00:47;;;;;;;3.92;1.27;;;11.20;99.90;;;;;;5030007;28;20539;-78
2023/08/08 04:03:16;;;;;;;2.15;1.27;;;11.20;99.90;;;;;;5030715;28;20052;-79
2023/08/08 04:05:46;;;;;;;2.20;1.50;;;11.30;99.90;;;;;;5030552;28;21303;-79
2023/08/08 04:08:13;;;;;;;1.95;1.10;;;11.30;99.90;;;;;;5030881;28;20025;-79
2023/08/08 04:10:38;;;;;;;3.17;1.33;;;11.30;99.90;;;;;;5032847;28;20048;-79
2023/08/08 04:13:04;;;;;;;2.25;1.25;;;11.40;99.90;;;;;;5034424;28;20029;-79
2023/08/08 04:15:29;;;;;;;3.45;1.30;;;11.30;99.90;;;;;;5034024;28;21018;-79
2023/08/08 04:17:55;;;;;;;2.50;1.42;;;11.40;99.90;;;;;;5033751;28;20420;-79
2023/08/08 04:20:20;;;;;;;3.05;1.60;;;11.40;99.90;;;;;;5034483;28;20036;-79
2023/08/08 04:22:46;;;;;;;2.25;1.40;;;11.40;99.90;;;;;;5033974;28;20048;-79
2023/08/08 04:25:11;;;;;;;2.08;1.30;;;11.50;99.90;;;;;;5034076;28;20060;-79
2023/08/08 04:27:37;;;;;;;2.63;1.30;;;11.50;99.90;;;;;;5034280;28;20053;-79
2023/08/08 04:30:04;;;;;;;3.28;1.60;;;11.50;99.90;;;;;;5034484;28;20882;-79
2023/08/08 04:32:30;;;;;;;3.47;1.38;;;11.60;99.90;;;;;;5033976;28;20044;-79
2023/08/08 04:34:55;;;;;;;2.25;1.40;;;11.60;99.90;;;;;;5033978;28;20749;-79
2023/08/08 04:37:21;;;;;;;1.70;1.20;;;11.60;99.90;;;;;;5033074;28;20029;-79
2023/08/08 04:39:47;;;;;;;4.25;1.50;;;11.70;99.90;;;;;;5033068;28;20032;-79
2023/08/08 04:42:12;;;;;;;3.15;1.20;;;11.70;99.90;;;;;;5034066;28;20025;-79
2023/08/08 04:44:38;;;;;;;3.15;1.60;;;11.80;99.90;;;;;;5034081;28;20044;-79
2023/08/08 04:47:04;;;;;;;3.63;1.42;;;11.80;99.90;;;;;;5033119;28;20535;-79
2023/08/08 04:49:30;;;;;;;2.38;1.27;;;11.90;99.90;;;;;;5031066;28;20056;-79
2023/08/08 04:51:55;;;;;;;3.22;1.45;;;11.90;99.90;;;;;;5032488;28;20548;-79
2023/08/08 04:54:21;;;;;;;4.80;1.40;;;11.90;99.90;;;;;;5032835;28;20036;-78
2023/08/08 04:56:46;;;;;;;1.75;1.25;;;12.00;99.90;;;;;;5032740;28;20028;-79
2023/08/08 04:59:12;;;;;;;2.85;1.40;;;12.00;99.90;;;;;;5020352;28;20037;-78
2023/08/08 05:01:38;;;;;;;2.90;1.35;;;12.00;99.90;;;;;;5031352;28;20037;-78
2023/08/08 05:04:03;;;;;;;4.82;1.25;;;12.10;99.90;;;;;;5030309;28;20127;-78
2023/08/08 05:06:29;;;;;;;2.65;1.30;;;12.10;99.90;;;;;;5032121;28;20168;-78
2023/08/08 05:08:56;;;;;;;2.80;1.33;;;12.20;99.90;;;;;;5031597;28;20674;-78
2023/08/08 05:11:22;;;;;;;3.50;1.75;;;12.20;99.90;;;;;;5031581;28;20026;-79
2023/08/08 05:13:48;;;;;;;2.85;1.27;;;12.30;99.90;;;;;;5032815;28;20640;-78
2023/08/08 05:16:14;;;;;;;2.13;1.23;;;12.30;99.90;;;;;;5031551;28;20116;-78
2023/08/08 05:18:40;;;;;;;2.25;1.48;;;12.40;99.90;;;;;;5031629;28;20778;-78
2023/08/08 05:21:06;;;;;;;1.95;1.30;;;12.40;99.90;;;;;;5030445;28;20025;-78
2023/08/08 05:23:31;;;;;;;2.58;1.40;;;12.40;99.90;;;;;;5031684;28;21196;-78
2023/08/08 05:25:57;;;;;;;3.13;1.60;;;12.50;99.90;;;;;;5032948;28;20028;-79
2023/08/08 05:28:22;;;;;;;2.60;1.45;;;12.50;99.90;;;;;;5031453;28;20124;-78
2023/08/08 05:30:48;;;;;;;4.43;1.60;;;12.60;99.90;;;;;;5033220;28;20713;-78
2023/08/08 05:33:13;;;;;;;3.38;1.30;;;12.70;99.90;;;;;;5033312;28;20055;-79
2023/08/08 05:35:39;;;;;;;2.97;1.40;;;12.80;99.90;;;;;;5033039;28;20120;-79
2023/08/08 05:38:04;;;;;;;3.42;1.27;;;12.90;99.90;;;;;;5031841;28;20037;-79
2023/08/08 05:40:30;;;;;;;4.75;1.98;;;13.10;99.90;;;;;;5031339;28;20040;-78
2023/08/08 05:42:55;;;;;;;2.47;1.40;;;13.10;99.90;;;;;;5031092;28;20029;-79
2023/08/08 05:45:21;;;;;;;2.30;1.50;;;13.20;99.90;;;;;;5031130;28;20759;-78
2023/08/08 05:47:46;;;;;;;3.28;1.90;;;13.30;99.90;;;;;;5031499;28;20559;-78
2023/08/08 05:50:12;;;;;;;2.45;1.58;;;13.30;99.90;;;;;;5024538;28;20038;-78
2023/08/08 05:52:38;;;;;;;1.85;1.20;;;13.40;99.90;;;;;;5023295;28;20030;-78
2023/08/08 05:55:04;;;;;;;2.15;1.33;;;13.40;99.90;;;;;;5025006;28;20032;-78
2023/08/08 05:57:29;;;;;;;2.38;1.20;;;13.40;99.90;;;;;;5025135;28;20042;-78
2023/08/08 05:59:55;;;;;;;3.72;1.38;;;13.50;99.90;;;;;;5024134;28;20063;-78
2023/08/08 06:02:20;;;;;;;3.08;1.42;;;13.60;99.90;;;;;;5021349;28;20035;-79
2023/08/08 06:04:46;;;;;;;3.60;1.50;;;13.70;99.90;;;;;;5023042;28;20025;-79
2023/08/08 06:07:11;;;;;;;2.30;1.25;;;13.80;99.90;;;;;;5028014;28;20480;-78
2023/08/08 06:09:37;;;;;;;1.80;1.20;;;13.90;99.90;;;;;;5031260;28;20139;-78
2023/08/08 06:12:03;;;;;;;6.95;1.50;;;14.00;99.90;;;;;;5030410;28;20017;-78
2023/08/08 06:14:30;;;;;;;2.65;1.35;;;14.10;99.90;;;;;;5030396;28;20107;-79
2023/08/08 06:16:55;;;;;;;4.30;1.58;;;14.20;99.90;;;;;;5031304;28;20030;-78
2023/08/08 06:19:21;;;;;;;2.45;1.70;;;14.40;99.90;;;;;;5030148;28;20037;-79
2023/08/08 06:21:46;;;;;;;4.97;1.30;;;14.50;99.90;;;;;;5030447;28;20082;-80
2023/08/08 06:24:12;;;;;;;2.33;1.27;;;14.60;99.90;;;;;;5030101;28;20060;-79
2023/08/08 06:26:38;;;;;;;4.93;1.50;;;14.70;99.90;;;;;;5028655;28;20041;-79
2023/08/08 06:29:03;;;;;;;3.30;1.40;;;14.70;99.90;;;;;;5028626;28;20109;-78
2023/08/08 06:31:30;;;;;;;3.25;1.23;;;14.80;99.90;;;;;;5030107;28;20032;-78
2023/08/08 06:33:55;;;;;;;3.55;1.40;;;14.90;99.90;;;;;;5028536;28;20557;-78
2023/08/08 06:36:21;;;;;;;4.15;1.10;;;15.00;99.90;;;;;;5027189;28;20029;-80
2023/08/08 06:38:46;;;;;;;2.28;1.30;;;15.10;99.90;;;;;;5028636;28;20791;-79
2023/08/08 06:41:12;;;;;;;4.00;1.30;;;15.10;99.90;;;;;;5029829;28;20507;-79
2023/08/08 06:43:38;;;;;;;4.80;1.20;;;15.10;99.90;;;;;;5028689;28;20030;-79
2023/08/08 06:46:04;;;;;;;3.80;1.23;;;15.10;99.90;;;;;;5027547;28;20039;-79
2023/08/08 06:48:30;;;;;;;2.47;1.23;;;15.10;99.90;;;;;;5026794;28;20029;-79
2023/08/08 06:50:55;;;;;;;1.80;1.30;;;15.20;99.90;;;;;;5027332;28;20033;-79
2023/08/08 06:53:21;;;;;;;2.17;1.20;;;15.20;99.90;;;;;;5021302;28;20974;-78
2023/08/08 06:55:46;;;;;;;3.35;1.38;;;15.30;99.90;;;;;;5028603;28;20033;-79
2023/08/08 06:58:12;;;;;;;2.60;1.50;;;15.40;99.90;;;;;;5028838;28;20190;-78
2023/08/08 07:00:37;;;;;;;2.22;1.40;;;15.50;99.90;;;;;;5030641;28;20868;-78
2023/08/08 07:03:03;;;;;;;2.47;1.38;;;15.60;99.90;;;;;;5030925;28;20029;-80
2023/08/08 07:05:29;;;;;;;2.13;1.40;;;15.70;99.90;;;;;;5031595;28;20017;-79
2023/08/08 07:07:55;;;;;;;2.10;1.20;;;15.90;99.90;;;;;;5029443;28;20369;-79
2023/08/08 07:10:20;;;;;;;2.50;1.20;;;16.00;99.90;;;;;;5031111;28;20499;-79
2023/08/08 07:12:46;;;;;;;5.50;1.30;;;16.00;99.90;;;;;;5032215;28;20041;-78
2023/08/08 07:15:12;;;;;;;3.40;1.70;;;16.10;99.90;;;;;;5031140;28;20063;-79
2023/08/08 07:17:37;;;;;;;2.22;1.50;;;16.10;99.90;;;;;;5028916;28;20037;-79
2023/08/08 07:20:05;;;;;;;1.95;1.23;;;16.10;99.90;;;;;;5025281;28;20778;-79
2023/08/08 07:22:32;;;;;;;3.28;1.30;;;16.10;99.90;;;;;;5031332;28;20332;-79
2023/08/08 07:24:58;;;;;;;2.58;1.52;;;16.10;99.90;;;;;;5032270;28;20029;-80
2023/08/08 07:27:23;;;;;;;2.25;1.30;;;16.20;99.90;;;;;;5030034;28;20075;-80
2023/08/08 07:29:49;;;;;;;3.83;1.30;;;16.20;99.90;;;;;;5031600;28;20475;-79
2023/08/08 07:32:14;;;;;;;4.07;1.98;;;16.30;99.90;;;;;;5030342;28;20021;-79
2023/08/08 07:34:40;;;;;;;2.35;1.33;;;16.40;99.90;;;;;;5030329;28;20484;-79
2023/08/08 07:37:05;;;;;;;5.43;2.38;;;16.50;99.90;;;;;;5027448;28;20523;-79
2023/08/08 07:39:31;;;;;;;1.80;1.10;;;16.50;99.90;;;;;;5028517;28;20563;-79
2023/08/08 07:41:57;;;;;;;2.95;1.20;;;16.50;99.90;;;;;;5029806;28;20032;-79
2023/08/08 07:44:23;;;;;;;2.25;1.30;;;16.50;99.90;;;;;;5030584;28;20044;-79
2023/08/08 07:46:49;;;;;;;2.47;1.35;;;16.50;99.90;;;;;;5031422;28;20112;-79
2023/08/08 07:49:14;;;;;;;2.60;1.30;;;16.60;99.90;;;;;;5032487;28;20148;-79
2023/08/08 07:51:40;;;;;;;2.33;1.35;;;16.70;99.90;;;;;;5034484;28;20040;-79
2023/08/08 07:54:08;;;;;;;4.63;1.15;;;16.70;99.90;;;;;;5032555;28;20036;-79
2023/08/08 07:56:34;;;;;;;2.83;1.15;;;16.80;99.90;;;;;;5033707;28;20034;-80
2023/08/08 07:59:01;;;;;;;2.15;1.63;;;16.80;99.90;;;;;;5034451;28;20021;-79
2023/08/08 08:01:27;;;;;;;3.92;1.30;;;16.80;99.90;;;;;;5034191;28;20037;-79
2023/08/08 08:03:53;;;;;;;2.85;1.20;;;16.90;99.90;;;;;;5032471;28;20033;-78
2023/08/08 08:06:18;;;;;;;2.63;1.30;;;16.90;99.90;;;;;;5031697;28;20028;-78
2023/08/08 08:08:44;;;;;;;1.65;1.20;;;17.00;99.90;;;;;;5033258;28;20439;-78
2023/08/08 08:11:10;;;;;;;3.88;1.27;;;17.10;99.90;;;;;;5032437;28;20025;-78
2023/08/08 08:13:36;;;;;;;2.03;1.20;;;17.10;99.90;;;;;;5032594;28;20056;-80
2023/08/08 08:16:02;;;;;;;2.92;1.30;;;17.20;99.90;;;;;;5032157;28;20420;-78
2023/08/08 08:18:28;;;;;;;2.30;1.20;;;17.10;99.90;;;;;;5031340;28;20426;-78
2023/08/08 08:20:55;;;;;;;2.47;1.13;;;17.30;99.90;;;;;;5033198;28;20187;-78
2023/08/08 08:23:20;;;;;;;5.38;1.50;;;17.40;99.90;;;;;;5032837;28;20040;-78
2023/08/08 08:25:46;;;;;;;3.22;1.40;;;17.60;99.90;;;;;;5033112;28;20036;-78
2023/08/08 08:28:12;;;;;;;4.30;1.48;;;17.60;99.90;;;;;;5032603;28;20144;-78
2023/08/08 08:30:38;;;;;;;2.70;1.00;;;17.60;99.90;;;;;;5032458;28;20024;-78
2023/08/08 08:33:04;;;;;;;2.75;1.40;;;17.60;99.90;;;;;;5033227;28;20025;-79
2023/08/08 08:35:29;;;;;;;2.40;1.30;;;17.70;99.90;;;;;;5036120;28;20116;-78
2023/08/08 08:37:55;;;;;;;1.67;1.20;;;17.80;99.90;;;;;;5035080;28;20367;-79
2023/08/08 08:40:21;;;;;;;3.50;1.38;;;18.00;99.90;;;;;;5035731;28;20040;-79
2023/08/08 08:42:47;;;;;;;2.67;1.15;;;17.90;99.90;;;;;;5034217;28;20161;-78
2023/08/08 08:45:16;;;;;;;2.90;1.27;;;17.90;99.90;;;;;;5034151;28;20032;-78
2023/08/08 08:47:45;;;;;;;2.33;1.20;;;18.00;99.90;;;;;;5033612;28;20118;-79
2023/08/08 08:50:11;;;;;;;4.18;1.55;;;18.00;99.90;;;;;;5032845;28;20063;-79
2023/08/08 08:52:37;;;;;;;2.70;1.42;;;18.00;99.90;;;;;;5033214;28;20435;-78
2023/08/08 08:55:04;;;;;;;4.95;1.50;;;18.10;99.90;;;;;;5032787;28;20217;-78
2023/08/08 08:57:29;;;;;;;2.47;1.30;;;18.10;99.90;;;;;;5032642;28;21406;-79
2023/08/08 08:59:55;;;;;;;5.05;1.45;;;18.10;99.90;;;;;;5034668;28;20036;-78
2023/08/08 09:02:21;;;;;;;2.33;1.23;;;18.10;99.90;;;;;;5032021;28;20037;-78
2023/08/08 09:04:47;;;;;;;2.60;1.20;;;18.20;99.90;;;;;;5034478;28;20028;-79
2023/08/08 09:07:14;;;;;;;1.95;1.20;;;18.30;99.90;;;;;;5032580;28;20090;-78
2023/08/08 09:09:43;;;;;;;2.67;1.40;;;18.40;99.90;;;;;;5033463;28;20438;-78
2023/08/08 09:12:08;;;;;;;3.70;1.55;;;18.50;99.90;;;;;;5027784;28;20061;-79
2023/08/08 09:14:39;;;;;;;1.48;1.00;;;18.50;99.90;;;;;;5026298;28;20112;-79
2023/08/08 09:17:09;;;;;;;5.47;1.30;;;18.60;99.90;;;;;;5026186;28;20116;-78
2023/08/08 09:19:35;;;;;;;4.10;1.50;;;18.60;99.90;;;;;;5026225;28;20075;-78
2023/08/08 09:22:01;;;;;;;3.70;1.35;;;18.60;99.90;;;;;;5025790;28;20032;-79
2023/08/08 09:24:27;;;;;;;3.05;1.25;;;18.80;99.90;;;;;;5026836;28;20094;-78
2023/08/08 09:26:52;;;;;;;3.15;1.38;;;18.90;99.90;;;;;;5026118;28;20037;-79
2023/08/08 09:29:18;;;;;;;3.63;1.25;;;19.10;99.90;;;;;;5023197;28;20033;-78
2023/08/08 09:31:46;;;;;;;4.13;1.30;;;19.10;99.90;;;;;;5022919;28;20040;-79
2023/08/08 09:34:12;;;;;;;4.32;2.13;;;19.30;99.90;;;;;;5026338;28;20071;-79
2023/08/08 09:36:38;;;;;;;2.92;1.42;;;19.70;99.90;;;;;;5026437;28;20022;-79
2023/08/08 09:39:04;;;;;;;2.15;1.15;;;19.80;99.90;;;;;;5027504;28;20038;-79
2023/08/08 09:41:31;;;;;;;2.30;1.50;;;20.00;99.90;;;;;;5026528;28;20921;-79
2023/08/08 09:43:58;;;;;;;2.50;1.40;;;20.20;99.90;;;;;;5027054;28;20017;-79
2023/08/08 09:46:24;;;;;;;2.78;1.20;;;20.50;99.90;;;;;;5028184;28;20128;-79
2023/08/08 09:48:50;;;;;;;2.45;1.20;;;20.70;99.90;;;;;;5029082;28;20025;-79
2023/08/08 09:51:17;;;;;;;2.90;1.20;;;20.80;99.90;;;;;;5027201;28;20674;-78
2023/08/08 09:53:44;;;;;;;2.47;1.13;;;20.90;99.90;;;;;;5026718;28;20097;-79
2023/08/08 09:56:09;;;;;;;3.75;1.38;;;21.10;99.90;;;;;;5032053;28;20188;-79
2023/08/08 09:58:35;;;;;;;2.90;1.45;;;21.20;99.90;;;;;;5028440;28;20025;-73
2023/08/08 10:01:01;;;;;;;2.10;1.25;;;21.30;99.90;;;;;;5030746;28;20057;-72
2023/08/08 10:03:28;;;;;;;2.50;1.35;;;21.50;99.90;;;;;;5031878;28;20025;-76
2023/08/08 10:05:54;;;;;;;2.25;1.23;;;21.70;99.90;;;;;;5031791;28;20029;-73
2023/08/08 10:08:20;;;;;;;3.30;1.20;;;21.90;99.90;;;;;;5029719;28;20021;-74
2023/08/08 10:10:47;;;;;;;3.90;1.40;;;21.90;99.90;;;;;;5029911;28;20033;-74
2023/08/08 10:13:21;;;;;;;2.63;1.27;;;21.80;99.90;;;;;;5030718;28;20029;-73
2023/08/08 10:15:46;;;;;;;3.83;1.20;;;21.60;99.90;;;;;;5029116;28;20033;-74
2023/08/08 10:18:13;;;;;;;2.70;1.20;;;21.40;99.90;;;;;;5028348;28;20056;-74
2023/08/08 10:20:39;;;;;;;2.03;1.23;;;21.20;99.90;;;;;;5028767;28;20037;-74
2023/08/08 10:23:07;;;;;;;1.92;1.05;;;21.10;99.90;;;;;;5029400;28;20026;-75
2023/08/08 10:25:32;;;;;;;2.35;1.30;;;21.20;99.90;;;;;;5030663;28;20082;-73
2023/08/08 10:28:13;;;;;;;1.60;0.90;;;21.20;99.90;;;;;;5029041;28;20037;-73
2023/08/08 10:30:47;;;;;;;1.55;1.00;;;21.20;99.90;;;;;;5029881;28;20704;-76
2023/08/08 10:33:21;;;;;;;2.37;1.30;;;21.30;99.90;;;;;;5028559;28;20029;-76
2023/08/08 10:36:09;;;;;;;3.35;1.27;;;21.20;99.90;;;;;;5027447;28;20052;-73
2023/08/08 10:38:43;;;;;;;3.72;1.20;;;21.10;99.90;;;;;;5030121;28;20029;-73
2023/08/08 10:41:17;;;;;;;2.00;1.10;;;20.90;99.90;;;;;;5029534;28;20110;-73
2023/08/08 10:43:56;;;;;;;3.13;1.52;;;20.90;99.90;;;;;;5025457;28;20021;-72
2023/08/08 10:46:29;;;;;;;1.77;1.10;;;21.00;99.90;;;;;;5027316;28;20034;-72
2023/08/08 10:48:59;;;;;;;1.63;1.15;;;21.10;99.90;;;;;;5029619;28;20040;-72
2023/08/08 10:51:43;;;;;;;4.25;1.30;;;21.10;99.90;;;;;;5029203;28;20145;-72
2023/08/08 10:54:36;;;;;;;1.85;1.10;;;21.10;99.90;;;;;;5030857;28;20025;-72
2023/08/08 10:57:02;;;;;;;1.77;1.17;;;21.10;99.90;;;;;;5027014;28;20029;-73
2023/08/08 10:59:37;;;;;;;2.00;1.27;;;21.30;99.90;;;;;;5028570;28;20523;-72
2023/08/08 11:02:04;;;;;;;2.25;1.00;;;21.30;99.90;;;;;;5029738;28;20036;-77
2023/08/08 11:04:32;;;;;;;2.00;1.08;;;21.50;99.90;;;;;;5025971;28;20033;-73
2023/08/08 11:06:58;;;;;;;3.00;1.30;;;21.70;99.90;;;;;;5027124;28;20029;-77
2023/08/08 11:09:26;;;;;;;2.80;1.33;;;21.70;99.90;;;;;;5030197;28;20032;-80
2023/08/08 11:11:51;;;;;;;2.17;1.15;;;21.70;99.90;;;;;;5032060;28;20108;-79
2023/08/08 11:14:19;;;;;;;2.53;1.30;;;21.70;99.90;;;;;;5031865;28;20071;-79
2023/08/08 11:16:47;;;;;;;2.70;1.30;;;21.70;99.90;;;;;;5032460;28;20025;-78
2023/08/08 11:19:13;;;;;;;1.83;1.23;;;21.60;99.90;;;;;;5031633;28;20021;-78
2023/08/08 11:21:44;;;;;;;2.75;1.00;;;21.70;99.90;;;;;;5029811;28;20028;-79
2023/08/08 11:24:11;;;;;;;1.90;1.30;;;21.80;99.90;;;;;;5030118;28;20028;-78
2023/08/08 11:26:38;;;;;;;1.42;1.15;;;21.80;99.90;;;;;;5030295;28;20584;-78
2023/08/08 11:29:05;;;;;;;2.70;1.20;;;21.80;99.90;;;;;;5031530;28;20147;-78
2023/08/08 11:31:34;;;;;;;2.42;1.20;;;21.80;99.90;;;;;;5032643;28;20052;-79
2023/08/08 11:34:00;;;;;;;3.00;1.40;;;21.80;99.90;;;;;;5031968;28;20039;-78
2023/08/08 11:36:33;;;;;;;4.18;1.17;;;22.00;99.90;;;;;;5030962;28;20030;-78
2023/08/08 11:39:08;;;;;;;2.15;1.35;;;22.40;99.90;;;;;;5032227;28;20033;-80
2023/08/08 11:41:35;;;;;;;3.17;1.30;;;22.80;99.90;;;;;;5034987;28;20684;-79
2023/08/08 11:44:02;;;;;;;2.05;1.10;;;23.00;99.90;;;;;;5035019;28;20021;-78
2023/08/08 11:46:28;;;;;;;2.40;1.30;;;23.30;99.90;;;;;;5033703;28;20025;-79
2023/08/08 11:48:54;;;;;;;2.25;1.20;;;23.40;99.90;;;;;;5031722;28;20048;-79
2023/08/08 11:51:19;;;;;;;4.43;1.38;;;23.70;99.90;;;;;;5034302;28;20040;-81
2023/08/08 11:53:50;;;;;;;2.35;1.10;;;23.90;99.90;;;;;;5033264;28;20025;-79
2023/08/08 11:56:17;;;;;;;1.60;1.20;;;24.10;99.90;;;;;;5033379;28;21565;-80
2023/08/08 11:58:43;;;;;;;1.60;1.10;;;24.20;99.90;;;;;;5032476;28;20060;-79
2023/08/08 12:01:09;;;;;;;1.92;1.13;;;24.30;99.90;;;;;;5032094;28;20056;-80
2023/08/08 12:03:38;;;;;;;3.53;1.52;;;24.40;99.90;;;;;;5031989;28;20053;-80
2023/08/08 12:06:17;;;;;;;2.53;1.15;;;24.50;99.90;;;;;;5031173;28;20033;-80
2023/08/08 12:08:44;;;;;;;2.03;1.10;;;24.40;99.90;;;;;;5032489;28;20064;-79
2023/08/08 12:11:14;;;;;;;2.03;1.20;;;24.40;99.90;;;;;;5032553;28;20033;-79
2023/08/08 12:13:44;;;;;;;1.45;0.95;;;24.10;99.90;;;;;;5032310;28;20025;-79
2023/08/08 12:16:12;;;;;;;4.13;1.65;;;24.10;99.90;;;;;;5032169;28;20033;-79
2023/08/08 12:18:38;;;;;;;2.42;1.30;;;24.00;99.90;;;;;;5032399;28;20026;-80
2023/08/08 12:21:08;;;;;;;2.45;1.17;;;24.10;99.90;;;;;;5034041;28;20124;-79
2023/08/08 12:23:35;;;;;;;2.00;1.20;;;24.50;99.90;;;;;;5034195;28;20032;-80
2023/08/08 12:26:04;;;;;;;3.83;1.25;;;24.50;98.40;;;;;;5032809;28;20021;-79
2023/08/08 12:28:30;;;;;;;2.60;1.15;;;24.70;99.90;;;;;;5032239;28;20102;-80
2023/08/08 12:30:56;;;;;;;2.95;1.23;;;24.60;98.90;;;;;;5032584;28;20080;-80
2023/08/08 12:33:21;;;;;;;2.25;1.10;;;24.20;98.90;;;;;;5034589;28;20051;-79
2023/08/08 12:35:48;;;;;;;2.13;1.38;;;23.90;99.90;;;;;;5032712;28;20056;-79
2023/08/08 12:38:14;;;;;;;1.92;1.10;;;23.70;99.80;;;;;;5033934;28;20213;-80
2023/08/08 12:40:40;;;;;;;4.95;1.33;;;23.50;99.90;;;;;;5033278;28;20112;-78
2023/08/08 12:43:06;;;;;;;1.95;1.05;;;23.40;99.90;;;;;;5032568;28;20032;-79
2023/08/08 12:45:31;;;;;;;4.18;1.25;;;23.80;99.90;;;;;;5029342;28;20028;-79